National Weather Service Raw Text Product

Displaying AFOS PIL: TAFFOD Received: 2018-01-12 17:42 UTC


053 
FTUS43 KDMX 121742
TAFFOD
TAF
KFOD 121742Z 1218/1318 34011KT P6SM FEW250
     FM122200 01010KT P6SM BKN220
     FM130800 35007KT P6SM SCT070=